Time;durP1;ratioP1;P1;durP2;ratioP2;P2;SDS_P1;SDS_P2;PMS_P1;PMS_P2;Temp;Humidity;BMP_temperature;BMP_pressure;BME280_temperature;BME280_humidity;BME280_pressure;Samples;Min_cycle;Max_cycle;Signal;HPM_P1;HPM_P2
2021/08/16 00:02:07;;;;;;;;;4.25;3.50;;;;;23.28;100.00;101195.22;5119017;27;45325;-67
2021/08/16 00:04:32;;;;;;;;;5.00;2.00;;;;;23.17;100.00;101203.84;5119475;27;47368;-67
2021/08/16 00:07:00;;;;;;;;;2.75;2.75;;;;;23.08;100.00;101204.38;5119482;27;45463;-67
2021/08/16 00:09:29;;;;;;;;;3.25;3.25;;;;;23.00;100.00;101203.13;5119912;27;45358;-68
2021/08/16 00:11:54;;;;;;;;;3.75;3.00;;;;;22.88;100.00;101196.72;5119838;27;45528;-68
2021/08/16 00:14:20;;;;;;;;;3.00;3.00;;;;;22.83;100.00;101201.44;5119393;27;46288;-67
2021/08/16 00:16:45;;;;;;;;;3.75;3.00;;;;;22.78;100.00;101204.34;5119494;27;45335;-67
2021/08/16 00:22:33;;;;;;;;;3.00;2.75;;;;;22.60;100.00;101200.94;5119765;27;45275;-67
2021/08/16 00:24:58;;;;;;;;;3.75;3.00;;;;;22.43;100.00;101173.59;5119649;27;45628;-67
2021/08/16 00:27:23;;;;;;;;;2.50;2.00;;;;;22.53;100.00;101188.06;5119687;27;45434;-67
2021/08/16 00:29:49;;;;;;;;;3.00;2.25;;;;;22.52;100.00;101191.66;5119563;27;45374;-68
2021/08/16 00:32:14;;;;;;;;;4.50;2.75;;;;;22.37;100.00;101179.22;5119221;27;45520;-68
2021/08/16 00:34:39;;;;;;;;;3.25;2.75;;;;;22.36;100.00;101182.84;5119189;27;47387;-67
2021/08/16 00:37:05;;;;;;;;;4.75;4.75;;;;;22.38;100.00;101197.75;5119064;27;45337;-68
2021/08/16 00:39:30;;;;;;;;;9.25;7.75;;;;;22.33;100.00;101188.34;5119017;27;45348;-67
2021/08/16 00:41:57;;;;;;;;;7.00;6.25;;;;;22.28;100.00;101185.94;5119430;27;45329;-68
2021/08/16 00:44:23;;;;;;;;;2.50;2.50;;;;;22.25;100.00;101189.63;5119117;27;47213;-68
2021/08/16 00:46:49;;;;;;;;;4.75;3.75;;;;;22.21;100.00;101187.22;5119098;27;45415;-67
2021/08/16 00:52:37;;;;;;;;;3.00;2.50;;;;;22.03;100.00;101186.41;5118649;27;45341;-67
2021/08/16 00:55:04;;;;;;;;;3.25;1.75;;;;;21.98;100.00;101191.13;5118467;27;47501;-67
2021/08/16 00:57:33;;;;;;;;;3.00;2.00;;;;;21.86;100.00;101173.16;5118759;27;45299;-66
2021/08/16 01:00:03;;;;;;;;;1.75;1.75;;;;;21.79;100.00;101171.78;5118931;27;45379;-67
2021/08/16 01:02:31;;;;;;;;;3.00;2.00;;;;;21.81;100.00;101177.88;5118959;27;45564;-67
2021/08/16 01:04:59;;;;;;;;;3.25;2.25;;;;;21.81;100.00;101180.53;5118646;27;46113;-67
2021/08/16 01:07:24;;;;;;;;;2.00;1.50;;;;;21.77;100.00;101174.53;5118633;27;45311;-67
2021/08/16 01:09:50;;;;;;;;;3.00;2.00;;;;;21.74;100.00;101172.03;5119073;27;45285;-67
2021/08/16 01:12:15;;;;;;;;;2.50;2.00;;;;;21.79;100.00;101179.75;5118814;27;45295;-68
2021/08/16 01:14:41;;;;;;;;;3.00;1.50;;;;;21.78;100.00;101178.91;5118578;27;45380;-67
2021/08/16 01:17:07;;;;;;;;;4.00;2.00;;;;;21.75;100.00;101175.56;5118943;27;45306;-67
2021/08/16 01:22:56;;;;;;;;;1.50;1.25;;;;;21.66;100.00;101172.44;5118954;27;45334;-67
2021/08/16 01:25:21;;;;;;;;;3.00;2.00;;;;;21.65;100.00;101169.84;5118692;27;46511;-67
2021/08/16 01:27:47;;;;;;;;;2.75;2.75;;;;;21.61;100.00;101182.47;5118777;27;45355;-69
2021/08/16 01:30:15;;;;;;;;;2.00;2.00;;;;;21.61;100.00;101182.47;5118905;27;45377;-67
2021/08/16 01:32:42;;;;;;;;;2.00;1.25;;;;;21.59;100.00;101181.69;5118759;27;45548;-67
2021/08/16 01:35:08;;;;;;;;;2.00;1.50;;;;;21.56;100.00;101181.84;5118303;27;47335;-67
2021/08/16 01:37:34;;;;;;;;;3.50;2.50;;;;;21.50;100.00;101175.97;5118798;27;45410;-68
2021/08/16 01:39:59;;;;;;;;;2.50;2.25;;;;;21.46;100.00;101172.63;5118469;27;45300;-68
2021/08/16 01:42:25;;;;;;;;;3.00;1.50;;;;;21.45;100.00;101167.41;5118929;27;45302;-68
2021/08/16 01:44:50;;;;;;;;;2.75;1.00;;;;;21.44;100.00;101179.81;5117734;27;47242;-68
2021/08/16 01:47:15;;;;;;;;;2.00;2.00;;;;;21.42;100.00;101184.34;5118138;27;45381;-67
2021/08/16 01:49:41;;;;;;;;;1.50;1.50;;;;;21.34;100.00;101175.94;5118366;27;45415;-68
2021/08/16 01:52:06;;;;;;;;;4.00;3.00;;;;;21.31;100.00;101184.06;5118144;27;45365;-67
2021/08/16 01:54:36;;;;;;;;;2.50;1.75;;;;;21.31;100.00;101184.06;5117901;27;46385;-67
2021/08/16 01:57:01;;;;;;;;;2.00;1.50;;;;;21.32;100.00;101191.09;5118032;27;45507;-67
2021/08/16 01:59:26;;;;;;;;;4.75;3.75;;;;;21.27;100.00;101190.44;5118341;27;45298;-67
2021/08/16 02:01:52;;;;;;;;;1.50;1.50;;;;;21.23;100.00;101183.56;5118379;27;45233;-67
2021/08/16 02:07:42;;;;;;;;;1.00;1.00;;;;;21.21;100.00;101186.28;5117853;27;45250;-68
2021/08/16 02:10:08;;;;;;;;;2.00;2.00;;;;;21.23;100.00;101194.19;5118035;27;45361;-67
2021/08/16 02:12:33;;;;;;;;;3.50;3.00;;;;;21.24;100.00;101191.47;5118275;27;45240;-67
2021/08/16 02:14:59;;;;;;;;;4.00;2.75;;;;;21.10;100.00;101162.09;5118051;27;45610;-68
2021/08/16 02:17:27;;;;;;;;;1.00;1.00;;;;;21.25;100.00;101179.91;5118052;27;45297;-67
2021/08/16 02:19:53;;;;;;;;;2.00;1.25;;;;;21.34;100.00;101189.22;5118038;27;45300;-68
2021/08/16 02:22:19;;;;;;;;;2.00;2.00;;;;;21.30;100.00;101190.31;5118359;27;45362;-68
2021/08/16 02:24:44;;;;;;;;;2.50;2.00;;;;;21.22;100.00;101187.16;5117919;27;47765;-67
2021/08/16 02:27:10;;;;;;;;;3.25;2.00;;;;;21.18;100.00;101180.28;5121187;27;45216;-67
2021/08/16 02:29:35;;;;;;;;;4.00;2.75;;;;;21.15;100.00;101183.97;5121538;27;45289;-66
2021/08/16 02:32:01;;;;;;;;;2.50;2.00;;;;;21.14;100.00;101181.38;5121640;27;45256;-67
2021/08/16 02:37:48;;;;;;;;;3.75;2.00;;;;;21.06;100.00;101184.44;5121194;27;45342;-67
2021/08/16 02:40:14;;;;;;;;;3.50;2.50;;;;;21.04;100.00;101189.78;5121281;27;45378;-68
2021/08/16 02:42:40;;;;;;;;;3.00;2.00;;;;;20.98;100.00;101175.97;5121710;27;45193;-67
2021/08/16 02:45:07;;;;;;;;;1.00;1.00;;;;;21.01;100.00;101181.13;5120891;27;46234;-67
2021/08/16 02:47:32;;;;;;;;;3.50;3.25;;;;;21.01;100.00;101189.09;5120979;27;45213;-67
2021/08/16 02:49:58;;;;;;;;;3.75;2.00;;;;;20.98;100.00;101183.94;5102565;27;45373;-68
2021/08/16 02:52:23;;;;;;;;;3.75;3.00;;;;;21.02;100.00;101199.63;5120864;27;45389;-68
2021/08/16 02:54:49;;;;;;;;;3.00;2.25;;;;;21.01;100.00;101187.31;5120577;27;45375;-67
2021/08/16 02:57:14;;;;;;;;;5.75;2.00;;;;;20.98;100.00;101184.81;5120965;27;45610;-67
2021/08/16 02:59:40;;;;;;;;;1.75;1.25;;;;;20.96;100.00;101192.00;5121025;27;45787;-67
2021/08/16 03:02:06;;;;;;;;;3.25;1.00;;;;;21.01;100.00;101197.94;5121290;27;45277;-68
2021/08/16 03:07:54;;;;;;;;;2.25;2.00;;;;;21.01;100.00;101191.75;5120536;27;45598;-67
2021/08/16 03:10:22;;;;;;;;;5.75;3.00;;;;;21.03;100.00;101188.09;5120917;27;45232;-67
2021/08/16 03:12:47;;;;;;;;;2.00;1.00;;;;;21.00;100.00;101179.41;5121048;27;45399;-68
2021/08/16 03:15:13;;;;;;;;;3.00;2.00;;;;;21.09;100.00;101193.09;5120513;27;46951;-68
2021/08/16 03:17:38;;;;;;;;;3.25;2.00;;;;;21.01;100.00;101176.69;5120296;27;45352;-67
2021/08/16 03:20:05;;;;;;;;;3.50;2.50;;;;;21.00;100.00;101174.09;5120464;27;45278;-67
2021/08/16 03:22:30;;;;;;;;;2.50;2.00;;;;;21.03;100.00;101174.81;5120690;27;45331;-67
2021/08/16 03:24:56;;;;;;;;;6.00;3.00;;;;;21.04;100.00;101168.56;5120490;27;45278;-67
2021/08/16 03:27:21;;;;;;;;;1.00;1.00;;;;;21.08;100.00;101186.09;5120244;27;45278;-67
2021/08/16 03:29:47;;;;;;;;;0.00;0.00;;;;;21.00;100.00;101172.31;5120732;27;45297;-68
2021/08/16 03:32:12;;;;;;;;;4.00;4.00;;;;;21.10;100.00;101191.31;5120460;27;45273;-68
2021/08/16 03:37:59;;;;;;;;;3.75;3.00;;;;;21.03;100.00;101181.91;5118985;27;45326;-69
2021/08/16 03:40:24;;;;;;;;;2.00;2.00;;;;;21.00;100.00;101187.38;5120171;27;45411;-69
2021/08/16 03:42:50;;;;;;;;;1.00;1.00;;;;;20.89;100.00;101173.81;5120183;27;45139;-68
2021/08/16 03:45:19;;;;;;;;;2.00;2.00;;;;;20.95;100.00;101192.06;5120018;27;46101;-69
2021/08/16 03:47:45;;;;;;;;;2.00;2.00;;;;;20.95;100.00;101178.81;5120240;27;45606;-68
2021/08/16 03:50:12;;;;;;;;;3.00;3.00;;;;;20.90;100.00;101178.19;5120300;27;45385;-68
2021/08/16 03:52:37;;;;;;;;;4.50;2.00;;;;;20.83;100.00;101164.38;5119951;27;45315;-68
2021/08/16 03:55:03;;;;;;;;;3.00;3.00;;;;;20.93;100.00;101185.97;5119761;27;47144;-68
2021/08/16 03:57:29;;;;;;;;;2.50;2.00;;;;;20.95;100.00;101178.81;5120085;27;45533;-68
2021/08/16 03:59:54;;;;;;;;;3.00;2.00;;;;;20.91;100.00;101180.75;5119991;27;45229;-68
2021/08/16 04:02:21;;;;;;;;;4.00;1.00;;;;;20.88;100.00;101185.38;5101623;27;45561;-67
2021/08/16 04:08:08;;;;;;;;;5.00;3.25;;;;;20.77;100.00;101183.22;5119684;27;45287;-66
2021/08/16 04:10:34;;;;;;;;;6.25;3.25;;;;;20.72;100.00;101175.50;5119721;27;45237;-67
2021/08/16 04:12:59;;;;;;;;;2.00;2.00;;;;;20.70;100.00;101187.97;5119881;27;45440;-67
2021/08/16 04:15:24;;;;;;;;;2.25;1.50;;;;;20.73;100.00;101184.31;5119436;27;47545;-67
2021/08/16 04:17:51;;;;;;;;;5.25;3.00;;;;;20.67;100.00;101180.19;5119462;27;45291;-67
2021/08/16 04:20:17;;;;;;;;;4.00;2.75;;;;;20.66;100.00;101193.53;5119494;27;45324;-67
2021/08/16 04:22:46;;;;;;;;;4.00;2.25;;;;;20.63;100.00;101193.69;5119768;27;45417;-68
2021/08/16 04:25:14;;;;;;;;;3.00;3.00;;;;;20.56;100.00;101181.63;5119185;27;46500;-67
2021/08/16 04:27:40;;;;;;;;;2.50;1.50;;;;;20.46;100.00;101187.38;5119303;27;45350;-67
2021/08/16 04:30:10;;;;;;;;;2.50;2.00;;;;;20.51;100.00;101200.41;5100971;27;45318;-67
2021/08/16 04:32:36;;;;;;;;;3.00;3.00;;;;;20.46;100.00;101192.69;5119790;27;45300;-67
2021/08/16 04:38:23;;;;;;;;;1.25;1.25;;;;;20.37;100.00;101195.75;5119070;27;45527;-68
2021/08/16 04:40:51;;;;;;;;;2.00;2.00;;;;;20.34;100.00;101193.22;5119368;27;45215;-68
2021/08/16 04:43:17;;;;;;;;;2.00;1.00;;;;;20.39;100.00;101201.00;5119281;27;45335;-67
2021/08/16 04:45:43;;;;;;;;;3.50;2.25;;;;;20.32;100.00;101197.75;5119183;27;46310;-67
2021/08/16 04:48:08;;;;;;;;;1.00;1.00;;;;;20.25;100.00;101204.28;5118668;27;45344;-68
2021/08/16 04:50:34;;;;;;;;;3.50;3.00;;;;;20.17;100.00;101204.66;5119309;27;45363;-67
2021/08/16 04:52:59;;;;;;;;;2.25;2.00;;;;;20.08;100.00;101190.94;5119225;27;45253;-68
2021/08/16 04:55:25;;;;;;;;;2.00;1.00;;;;;19.86;100.00;101157.47;5119023;27;46652;-68
2021/08/16 04:57:50;;;;;;;;;1.25;1.00;;;;;20.03;100.00;101198.25;5119074;27;45233;-68
2021/08/16 05:00:18;;;;;;;;;3.50;2.25;;;;;20.05;100.00;101202.56;5118756;27;45326;-67
2021/08/16 05:02:44;;;;;;;;;1.00;1.00;;;;;20.01;100.00;101206.28;5118885;27;45467;-67
2021/08/16 05:05:14;;;;;;;;;1.75;1.00;;;;;19.98;100.00;101205.56;5118701;27;45392;-68
2021/08/16 05:07:53;;;;;;;;;2.50;2.00;;;;;19.92;100.00;101198.78;5118647;27;45247;-67
2021/08/16 05:10:20;;;;;;;;;1.00;1.00;;;;;19.89;100.00;101207.69;5118568;27;45351;-67
2021/08/16 05:12:47;;;;;;;;;1.00;1.00;;;;;19.98;100.00;101213.53;5118698;27;45413;-66
2021/08/16 05:15:12;;;;;;;;;3.00;2.75;;;;;20.02;100.00;101217.75;5118572;27;45453;-67
2021/08/16 05:17:38;;;;;;;;;1.00;1.00;;;;;19.99;100.00;101216.09;5118558;27;45372;-67
2021/08/16 05:23:27;;;;;;;;;1.00;1.00;;;;;19.85;100.00;101208.75;5118908;27;45378;-67
2021/08/16 05:25:53;;;;;;;;;3.75;2.75;;;;;19.88;100.00;101211.28;5118664;27;45324;-67
2021/08/16 05:28:18;;;;;;;;;1.75;1.00;;;;;19.96;100.00;101226.00;5118331;27;45532;-67
2021/08/16 05:30:43;;;;;;;;;1.00;1.00;;;;;19.91;100.00;101226.16;5118836;27;45379;-68
2021/08/16 05:33:09;;;;;;;;;2.75;1.50;;;;;19.99;100.00;101228.50;5118396;27;45234;-68
2021/08/16 05:35:35;;;;;;;;;2.25;1.75;;;;;20.02;100.00;101223.06;5118052;27;46254;-68
2021/08/16 05:38:00;;;;;;;;;1.00;1.00;;;;;19.88;100.00;101203.31;5118263;27;45250;-67
2021/08/16 05:40:25;;;;;;;;;1.25;1.25;;;;;19.99;100.00;101218.75;5118370;27;45318;-68
2021/08/16 05:42:51;;;;;;;;;2.75;1.75;;;;;19.92;100.00;101211.16;5118632;27;45253;-68
2021/08/16 05:45:16;;;;;;;;;1.00;1.00;;;;;19.97;100.00;101225.06;5118343;27;46248;-68
2021/08/16 05:54:06;;;;;;;;;2.00;2.00;;;;;20.06;100.00;101245.84;5117336;27;45449;-68
2021/08/16 05:56:31;;;;;;;;;2.75;1.75;;;;;20.08;100.00;101252.78;5117826;27;46510;-67
2021/08/16 05:58:57;;;;;;;;;1.00;1.00;;;;;20.09;100.00;101251.84;5117918;27;45410;-68
2021/08/16 06:01:22;;;;;;;;;2.75;2.00;;;;;20.08;100.00;101246.63;5120963;27;45254;-69
2021/08/16 06:03:47;;;;;;;;;1.25;1.00;;;;;19.98;100.00;101232.09;5121828;27;45361;-68
2021/08/16 06:06:13;;;;;;;;;1.00;1.00;;;;;20.11;100.00;101255.28;5121373;27;47155;-68
2021/08/16 06:08:38;;;;;;;;;1.75;1.00;;;;;20.11;100.00;101243.81;5121369;27;45387;-67
2021/08/16 06:11:06;;;;;;;;;2.00;1.00;;;;;20.13;100.00;101252.56;5121681;27;45305;-66
2021/08/16 06:13:35;;;;;;;;;1.00;1.00;;;;;20.20;100.00;101259.34;5121641;27;45564;-66
2021/08/16 06:16:00;;;;;;;;;0.75;0.75;;;;;20.15;100.00;101248.09;5121371;27;47184;-67
2021/08/16 06:18:26;;;;;;;;;2.00;1.00;;;;;20.19;100.00;101257.63;5121163;27;45342;-67
2021/08/16 06:20:51;;;;;;;;;1.25;1.00;;;;;20.21;100.00;101255.75;5121562;27;45344;-67
2021/08/16 06:23:19;;;;;;;;;1.00;1.00;;;;;20.15;100.00;101242.78;5121456;27;45433;-68
2021/08/16 06:25:45;;;;;;;;;2.00;1.00;;;;;20.23;100.00;101264.50;5121052;27;47631;-68
2021/08/16 06:28:10;;;;;;;;;3.00;2.00;;;;;20.22;100.00;101259.25;5121453;27;45407;-68
2021/08/16 06:30:36;;;;;;;;;1.50;1.25;;;;;20.32;100.00;101261.41;5121487;27;45377;-68
2021/08/16 06:33:01;;;;;;;;;1.00;1.00;;;;;20.37;100.00;101271.81;5121413;27;45282;-67
2021/08/16 06:35:26;;;;;;;;;0.75;0.75;;;;;20.35;100.00;101279.81;5121022;27;47310;-67
2021/08/16 06:37:54;;;;;;;;;1.75;1.00;;;;;20.32;100.00;101272.00;5120857;27;45294;-68
2021/08/16 06:40:19;;;;;;;;;1.25;1.00;;;;;20.36;100.00;101278.88;5121217;27;45413;-68
2021/08/16 06:42:45;;;;;;;;;0.75;0.75;;;;;20.27;100.00;101255.47;5120674;27;45534;-67
2021/08/16 06:45:10;;;;;;;;;1.00;1.00;;;;;20.40;100.00;101267.25;5120894;27;45432;-68
2021/08/16 06:47:37;;;;;;;;;1.00;1.00;;;;;20.28;100.00;101248.34;5120638;27;45299;-68
2021/08/16 06:53:24;;;;;;;;;1.25;1.25;;;;;20.25;100.00;101252.00;5120806;27;45394;-66
2021/08/16 06:55:50;;;;;;;;;1.25;1.00;;;;;20.45;100.00;101289.13;5120708;27;46367;-69
2021/08/16 06:58:19;;;;;;;;;2.00;1.50;;;;;20.40;100.00;101282.28;5120829;27;45323;-68
2021/08/16 07:00:46;;;;;;;;;2.50;1.50;;;;;20.25;100.00;101273.22;5120698;27;45288;-68
2021/08/16 07:03:12;;;;;;;;;2.25;1.00;;;;;20.32;100.00;101279.97;5120887;27;45290;-69
2021/08/16 07:05:44;;;;;;;;;1.00;1.00;;;;;20.28;100.00;101278.38;5120422;27;45360;-68
2021/08/16 07:08:14;;;;;;;;;0.75;0.75;;;;;20.32;100.00;101290.56;5120601;27;45350;-68
2021/08/16 07:10:39;;;;;;;;;1.00;0.75;;;;;20.29;100.00;101277.47;5120632;27;45370;-68
2021/08/16 07:13:05;;;;;;;;;0.00;0.00;;;;;20.40;100.00;101303.50;5121160;27;45367;-68
2021/08/16 07:15:31;;;;;;;;;0.25;0.25;;;;;20.37;100.00;101307.16;5120672;27;45596;-67
2021/08/16 07:17:56;;;;;;;;;0.00;0.00;;;;;20.34;100.00;101288.72;5120297;27;45336;-68
2021/08/16 07:23:43;;;;;;;;;2.00;1.00;;;;;20.35;100.00;101300.19;5120670;27;45225;-68
2021/08/16 07:26:08;;;;;;;;;1.00;0.00;;;;;20.40;100.00;101308.81;5101669;27;45353;-68
2021/08/16 07:28:35;;;;;;;;;1.00;1.00;;;;;20.40;100.00;101295.53;5120270;27;45505;-68
2021/08/16 07:31:01;;;;;;;;;1.00;1.00;;;;;20.39;100.00;101309.75;5120286;27;45409;-68
2021/08/16 07:33:26;;;;;;;;;0.00;0.00;;;;;20.31;100.00;101295.94;5120754;27;45225;-69
2021/08/16 07:35:52;;;;;;;;;1.00;1.00;;;;;20.36;100.00;101308.06;5120049;27;46316;-69
2021/08/16 07:38:18;;;;;;;;;1.25;1.00;;;;;20.33;100.00;101308.19;5120061;27;45652;-68
2021/08/16 07:40:44;;;;;;;;;1.00;1.00;;;;;20.33;100.00;101321.47;5120287;27;45263;-69
2021/08/16 07:43:10;;;;;;;;;0.00;0.00;;;;;20.30;100.00;101318.97;5120650;27;45448;-69
2021/08/16 07:45:36;;;;;;;;;0.00;0.00;;;;;20.34;100.00;101311.72;5119835;27;46230;-68
2021/08/16 07:48:03;;;;;;;;;0.75;0.75;;;;;20.40;100.00;101325.63;5119822;27;45306;-67
2021/08/16 07:53:50;;;;;;;;;1.00;1.00;;;;;20.58;100.00;101307.09;5119506;27;45235;-69
2021/08/16 07:56:15;;;;;;;;;0.00;0.00;;;;;20.66;100.00;101312.94;5119851;27;46019;-68
2021/08/16 07:58:41;;;;;;;;;1.00;0.25;;;;;20.64;100.00;101302.38;5119759;27;45436;-68
2021/08/16 08:01:06;;;;;;;;;1.00;1.00;;;;;20.71;100.00;101310.91;5119783;27;45246;-67
2021/08/16 08:03:32;;;;;;;;;1.00;1.00;;;;;20.75;100.00;101315.13;5119907;27;45427;-67
2021/08/16 08:05:57;;;;;;;;;1.00;1.00;;;;;20.89;100.00;101307.38;5119497;27;46616;-68
2021/08/16 08:08:24;;;;;;;;;0.25;0.25;;;;;20.97;100.00;101296.38;5119651;27;45224;-67
2021/08/16 08:10:49;;;;;;;;;1.25;1.00;;;;;21.16;100.00;101320.25;5119456;27;45439;-68
2021/08/16 08:13:15;;;;;;;;;0.00;0.00;;;;;21.17;100.00;101314.00;5119659;27;45328;-68
2021/08/16 08:15:40;;;;;;;;;0.75;0.75;;;;;21.20;100.00;101314.72;5119710;27;45585;-67
2021/08/16 08:18:06;;;;;;;;;1.00;1.00;;;;;21.22;100.00;101322.59;5119424;27;45548;-67
2021/08/16 08:23:53;;;;;;;;;0.00;0.00;;;;;21.10;100.00;101322.28;5118801;27;45224;-67
2021/08/16 08:26:18;;;;;;;;;0.25;0.00;;;;;20.93;100.00;101311.59;5119445;27;46416;-67
2021/08/16 08:28:44;;;;;;;;;0.50;0.50;;;;;21.02;100.00;101335.06;5119244;27;45272;-66
2021/08/16 08:31:10;;;;;;;;;1.00;0.25;;;;;21.01;100.00;101329.81;5119476;27;45348;-67
2021/08/16 08:33:37;;;;;;;;;1.00;1.00;;;;;21.03;100.00;101342.09;5119741;27;45524;-66
2021/08/16 08:36:03;;;;;;;;;1.25;1.25;;;;;20.93;100.00;101329.34;5119081;27;46266;-66
2021/08/16 08:38:28;;;;;;;;;2.50;1.00;;;;;20.87;100.00;101327.84;5119095;27;45418;-67
2021/08/16 08:40:58;;;;;;;;;0.75;0.75;;;;;20.88;100.00;101342.84;5119125;27;45332;-67
2021/08/16 08:43:24;;;;;;;;;1.25;1.25;;;;;20.89;100.00;101335.72;5119301;27;45275;-66
2021/08/16 08:45:55;;;;;;;;;2.00;1.00;;;;;20.93;100.00;101342.59;5119272;27;46410;-67
2021/08/16 08:48:21;;;;;;;;;1.00;1.00;;;;;20.97;100.00;101339.72;5100377;27;45441;-66
2021/08/16 08:50:46;;;;;;;;;1.00;0.50;;;;;21.04;100.00;101338.50;5119085;27;45681;-66
2021/08/16 08:53:12;;;;;;;;;1.00;1.00;;;;;21.13;100.00;101345.16;5119275;27;45364;-66
2021/08/16 08:55:37;;;;;;;;;0.00;0.00;;;;;21.21;100.00;101355.41;5118767;27;45695;-67
2021/08/16 08:58:03;;;;;;;;;1.50;0.50;;;;;21.21;100.00;101353.63;5118934;27;45298;-66
2021/08/16 09:00:28;;;;;;;;;0.00;0.00;;;;;21.24;100.00;101361.47;5118996;27;45527;-67
2021/08/16 09:03:03;;;;;;;;;0.75;0.75;;;;;21.16;100.00;101365.41;5119414;27;45258;-67
2021/08/16 09:08:50;;;;;;;;;0.75;0.75;;;;;20.86;100.00;101360.63;5118745;27;45529;-67
2021/08/16 09:11:16;;;;;;;;;1.00;1.00;;;;;20.89;100.00;101372.91;5119055;27;45285;-66
2021/08/16 09:13:52;;;;;;;;;1.25;0.50;;;;;20.97;100.00;101381.34;5118931;27;45254;-65
2021/08/16 09:16:18;;;;;;;;;2.00;1.00;;;;;21.12;100.00;101382.41;5118727;27;46073;-65
2021/08/16 09:18:43;;;;;;;;;0.00;0.00;;;;;21.22;100.00;101358.00;5118901;27;45295;-67
2021/08/16 09:21:11;;;;;;;;;0.50;0.50;;;;;21.55;100.00;101375.91;5118911;27;45205;-66
2021/08/16 09:23:49;;;;;;;;;0.75;0.75;;;;;21.76;100.00;101373.97;5119036;27;45358;-67
2021/08/16 09:26:23;;;;;;;;;1.25;1.00;;;;;22.05;100.00;101377.81;5118280;27;46308;-67
2021/08/16 09:28:48;;;;;;;;;0.00;0.00;;;;;22.19;100.00;101359.34;5118726;27;45316;-67
2021/08/16 09:31:18;;;;;;;;;0.25;0.00;;;;;22.56;100.00;101382.19;5118721;27;45262;-67
2021/08/16 09:33:57;;;;;;;;;1.00;1.00;;;;;22.77;100.00;101385.47;5119360;27;45263;-67
2021/08/16 09:36:40;;;;;;;;;2.00;0.00;;;;;23.15;100.00;101376.25;5121911;27;45357;-67
2021/08/16 09:39:22;;;;;;;;;0.50;0.50;;;;;23.68;100.00;101382.13;5122311;27;45600;-66
2021/08/16 09:41:56;;;;;;;;;1.75;1.00;;;;;24.02;100.00;101370.34;5122431;27;45410;-67
2021/08/16 09:44:22;;;;;;;;;1.50;1.00;;;;;24.42;100.00;101376.75;5122538;27;45207;-67
2021/08/16 09:46:58;;;;;;;;;0.75;0.75;;;;;25.48;100.00;101378.88;5103454;27;47479;-66
2021/08/16 09:49:23;;;;;;;;;1.00;1.00;;;;;26.71;100.00;101382.91;5121851;27;45360;-67
2021/08/16 09:52:00;;;;;;;;;1.25;1.25;;;;;27.27;100.00;101372.59;5121847;27;45338;-67
2021/08/16 09:54:25;;;;;;;;;1.50;1.50;;;;;27.06;100.00;101378.56;5121922;27;45380;-67
2021/08/16 09:56:51;;;;;;;;;2.00;2.00;;;;;26.71;100.00;101382.91;5121534;27;47388;-67
2021/08/16 09:59:17;;;;;;;;;1.75;1.00;;;;;26.25;100.00;101402.19;5121769;27;45388;-66
2021/08/16 10:01:43;;;;;;;;;3.25;2.50;;;;;25.68;100.00;101399.00;5121749;27;45422;-67
2021/08/16 10:04:08;;;;;;;;;1.00;1.00;;;;;25.31;100.00;101404.91;5121835;27;45401;-66
2021/08/16 10:06:34;;;;;;;;;2.00;2.00;;;;;25.11;100.00;101393.81;5121510;27;47080;-66
2021/08/16 10:09:01;;;;;;;;;2.00;1.75;;;;;25.14;100.00;101407.00;5121712;27;45321;-67
2021/08/16 10:11:26;;;;;;;;;1.25;1.00;;;;;25.27;100.00;101403.41;5121647;27;45258;-66
2021/08/16 10:13:54;;;;;;;;;2.00;2.00;;;;;25.65;100.00;101402.69;5121783;27;45322;-66
2021/08/16 10:16:23;;;;;;;;;1.00;1.00;;;;;25.99;100.00;101409.31;5121345;27;46638;-67
2021/08/16 10:18:53;;;;;;;;;1.50;1.25;;;;;26.34;100.00;101406.94;5121648;27;45347;-67
2021/08/16 10:21:24;;;;;;;;;2.75;2.00;;;;;26.52;100.00;101408.34;5121572;27;45240;-67
2021/08/16 10:23:54;;;;;;;;;2.00;2.00;;;;;26.69;100.00;101411.63;5121870;27;45243;-66
2021/08/16 10:26:28;;;;;;;;;2.00;2.00;;;;;27.00;100.00;101403.13;5121299;27;46532;-67
2021/08/16 10:28:56;;;;;;;;;5.00;4.75;;;;;27.30;100.00;101401.84;5121522;27;45288;-66
2021/08/16 10:31:41;;;;;;;;;3.00;3.00;;;;;27.18;100.00;101384.00;5121159;27;45299;-66
2021/08/16 10:34:07;;;;;;;;;2.75;1.50;;;;;26.95;100.00;101409.78;5121484;27;45430;-67
2021/08/16 10:36:32;;;;;;;;;2.00;2.00;;;;;26.47;100.00;101423.84;5120942;27;46065;-67
2021/08/16 10:39:02;;;;;;;;;3.00;1.75;;;;;26.01;100.00;101433.31;5120966;27;45342;-67
2021/08/16 10:41:32;;;;;;;;;3.00;1.75;;;;;25.58;100.00;101438.84;5102700;27;45338;-67
2021/08/16 10:44:10;;;;;;;;;3.00;2.00;;;;;25.25;100.00;101442.75;5121303;27;45336;-67
2021/08/16 10:46:35;;;;;;;;;1.75;1.75;;;;;25.16;100.00;101443.34;5120093;27;46511;-66
2021/08/16 10:49:04;;;;;;;;;3.00;2.00;;;;;25.82;100.00;101439.06;5120799;27;45289;-66
2021/08/16 10:51:42;;;;;;;;;1.75;1.75;;;;;26.05;100.00;101434.84;5121038;27;45535;-67
2021/08/16 10:54:07;;;;;;;;;2.75;2.75;;;;;25.92;100.00;101432.13;5120796;27;45354;-67
2021/08/16 10:56:35;;;;;;;;;2.25;2.00;;;;;25.80;100.00;101452.53;5120644;27;47241;-67
2021/08/16 10:59:01;;;;;;;;;2.00;2.00;;;;;25.67;100.00;101459.66;5120990;27;45233;-67
2021/08/16 11:01:26;;;;;;;;;5.75;3.50;;;;;25.49;100.00;101466.19;5120807;27;45228;-67
2021/08/16 11:04:06;;;;;;;;;3.00;3.00;;;;;25.25;100.00;101456.13;5120541;27;45161;-67
2021/08/16 11:06:32;;;;;;;;;3.00;3.00;;;;;25.28;100.00;101479.97;5120386;27;47278;-68
2021/08/16 11:09:06;;;;;;;;;4.25;4.00;;;;;26.41;100.00;101459.09;5120596;27;45573;-67
2021/08/16 11:11:35;;;;;;;;;5.75;4.75;;;;;28.91;100.00;101458.41;5120469;27;45340;-66
2021/08/16 11:14:08;;;;;;;;;7.00;6.25;;;;;30.93;100.00;101458.44;5121119;27;45266;-66
2021/08/16 11:16:34;;;;;;;;;3.00;3.00;;;;;30.75;92.13;101469.00;5120224;27;46381;-66
2021/08/16 11:19:00;;;;;;;;;5.25;5.00;;;;;29.93;94.95;101482.31;5120462;27;45346;-66
2021/08/16 11:21:29;;;;;;;;;4.25;3.25;;;;;29.07;96.82;101475.03;5120475;27;45270;-67
2021/08/16 11:23:57;;;;;;;;;2.00;1.50;;;;;28.31;98.51;101484.56;5120679;27;45340;-66
2021/08/16 11:26:22;;;;;;;;;5.00;4.25;;;;;27.58;97.74;101479.31;5119969;27;45493;-66
2021/08/16 11:28:47;;;;;;;;;5.50;5.50;;;;;27.19;97.79;101482.25;5120057;27;45438;-67
2021/08/16 11:31:14;;;;;;;;;5.25;5.00;;;;;26.86;98.41;101483.63;5120357;27;45364;-66
2021/08/16 11:33:39;;;;;;;;;7.50;6.25;;;;;26.53;98.38;101479.69;5101973;27;45343;-66
2021/08/16 11:36:13;;;;;;;;;6.75;5.50;;;;;26.44;99.67;101499.06;5120039;27;47349;-66
2021/08/16 11:38:43;;;;;;;;;5.50;5.50;;;;;26.23;100.00;101500.47;5102132;27;45376;-66
2021/08/16 11:41:14;;;;;;;;;6.00;5.25;;;;;26.19;100.00;101498.97;5120320;27;45351;-66
2021/08/16 11:43:39;;;;;;;;;7.25;7.25;;;;;26.16;100.00;101491.16;5120326;27;45301;-66
2021/08/16 11:46:13;;;;;;;;;9.50;7.25;;;;;26.39;100.00;101497.66;5120252;27;45514;-67
2021/08/16 11:54:46;;;;;;;;;12.75;11.00;;;;;26.65;98.52;101502.06;5119168;27;45422;-66
2021/08/16 11:57:12;;;;;;;;;11.50;11.00;;;;;26.80;95.72;101497.47;5118947;27;45524;-65
2021/08/16 11:59:37;;;;;;;;;12.25;10.50;;;;;27.23;96.91;101494.47;5118770;27;45296;-65
2021/08/16 12:02:05;;;;;;;;;11.50;11.00;;;;;28.24;95.28;101506.59;5101016;27;45348;-65
2021/08/16 12:04:37;;;;;;;;;15.50;13.50;;;;;29.73;87.67;101488.50;5119813;27;45270;-66
2021/08/16 12:07:03;;;;;;;;;15.00;13.25;;;;;30.64;85.72;101499.59;5119452;27;47029;-66
2021/08/16 12:09:34;;;;;;;;;12.75;12.50;;;;;30.54;80.35;101519.34;5119768;27;45738;-67
2021/08/16 12:12:01;;;;;;;;;16.25;16.00;;;;;29.94;79.83;101508.25;5119735;27;45467;-67
2021/08/16 12:14:28;;;;;;;;;16.00;14.25;;;;;29.41;79.75;101523.41;5120041;27;45374;-67
2021/08/16 12:16:54;;;;;;;;;15.75;13.75;;;;;28.99;79.31;101514.28;5119292;27;45788;-65
2021/08/16 12:19:19;;;;;;;;;12.75;12.25;;;;;28.68;80.55;101525.56;5119273;27;45248;-66